Time;durP1;ratioP1;P1;durP2;ratioP2;P2;SDS_P1;SDS_P2;PMS_P1;PMS_P2;Temp;Humidity;BMP_temperature;BMP_pressure;BME280_temperature;BME280_humidity;BME280_pressure;Samples;Min_cycle;Max_cycle;Signal;HPM_P1;HPM_P2
2022/02/28 00:00:53;;;;;;;33.50;21.00;;;52.00;2227.20;;;;;;5010993;28;20030;-76
2022/02/28 00:03:20;;;;;;;33.50;21.13;;;52.00;2227.20;;;;;;5011890;28;20110;-75
2022/02/28 00:05:46;;;;;;;30.85;19.35;;;52.10;2227.20;;;;;;5010538;28;20417;-75
2022/02/28 00:08:11;;;;;;;33.38;19.45;;;52.00;2227.20;;;;;;5011386;28;20022;-76
2022/02/28 00:10:38;;;;;;;29.52;20.73;;;52.00;2227.20;;;;;;5010956;28;20492;-76
2022/02/28 00:13:04;;;;;;;32.70;21.08;;;51.90;2227.20;;;;;;5010866;28;20026;-75
2022/02/28 00:15:30;;;;;;;29.40;19.33;;;51.90;2227.20;;;;;;5010877;28;20026;-76
2022/02/28 00:17:56;;;;;;;32.47;20.85;;;51.90;2227.20;;;;;;5011591;28;20409;-76
2022/02/28 00:20:22;;;;;;;25.65;18.48;;;51.90;2227.20;;;;;;5010843;28;20030;-76
2022/02/28 00:22:49;;;;;;;25.23;14.95;;;51.90;2227.20;;;;;;5010607;28;20536;-75
2022/02/28 00:25:15;;;;;;;24.80;16.58;;;51.90;2227.20;;;;;;5010798;28;20477;-75
2022/02/28 00:27:41;;;;;;;26.90;14.23;;;51.90;2227.20;;;;;;5011964;28;20056;-76
2022/02/28 00:30:08;;;;;;;19.17;14.32;;;51.80;2227.20;;;;;;5010751;28;20030;-76
2022/02/28 00:32:34;;;;;;;19.13;11.90;;;51.90;2227.20;;;;;;5012246;28;20034;-76
2022/02/28 00:35:00;;;;;;;21.50;10.82;;;51.80;2227.20;;;;;;5010760;28;20109;-76
2022/02/28 00:37:26;;;;;;;14.35;9.45;;;;;;;;;;5011672;28;20037;-76
2022/02/28 00:39:52;;;;;;;15.98;10.15;;;;;;;;;;5011939;28;20058;-76
2022/02/28 00:42:18;;;;;;;18.88;13.10;;;;;;;;;;5011909;28;20037;-76
2022/02/28 00:44:44;;;;;;;26.92;16.85;;;52.10;2227.20;;;;;;5010614;28;20030;-76
2022/02/28 00:47:09;;;;;;;19.80;13.25;;;52.00;2227.20;;;;;;5011587;28;20033;-75
2022/02/28 00:49:36;;;;;;;23.00;13.73;;;52.10;2227.20;;;;;;5012092;28;20048;-76
2022/02/28 00:52:02;;;;;;;20.77;14.02;;;52.00;2227.20;;;;;;5010462;28;20109;-76
2022/02/28 00:54:28;;;;;;;27.20;16.33;;;52.00;2227.20;;;;;;5011504;28;20026;-76
2022/02/28 00:56:54;;;;;;;23.88;15.07;;;52.00;2227.20;;;;;;5011272;28;20503;-76
2022/02/28 00:59:20;;;;;;;27.10;17.13;;;52.00;2227.20;;;;;;5011575;28;20477;-76
2022/02/28 01:01:47;;;;;;;30.15;19.20;;;52.00;2227.20;;;;;;5011959;28;20072;-76
2022/02/28 01:04:12;;;;;;;34.80;20.23;;;52.10;2227.20;;;;;;5011738;28;20018;-76
2022/02/28 01:06:38;;;;;;;28.63;20.17;;;52.00;2227.20;;;;;;5011811;28;20046;-76
2022/02/28 01:09:05;;;;;;;29.40;20.35;;;52.00;2227.20;;;;;;5011396;28;20492;-75
2022/02/28 01:11:31;;;;;;;33.03;20.90;;;52.10;2227.20;;;;;;5010389;28;20030;-76
2022/02/28 01:13:57;;;;;;;26.75;17.77;;;52.10;2227.20;;;;;;5011445;28;20044;-75
2022/02/28 01:16:24;;;;;;;32.03;21.05;;;52.10;2227.20;;;;;;5011666;28;20033;-76
2022/02/28 01:18:50;;;;;;;26.58;18.92;;;52.10;2227.20;;;;;;5015003;28;20026;-76
2022/02/28 01:21:16;;;;;;;37.65;20.38;;;52.10;2227.20;;;;;;5015461;28;20033;-76
2022/02/28 01:23:42;;;;;;;30.75;17.63;;;52.10;2227.20;;;;;;5013834;28;20030;-77
2022/02/28 01:26:08;;;;;;;29.63;17.02;;;52.10;2227.20;;;;;;5014510;28;20492;-76
2022/02/28 01:28:34;;;;;;;24.83;15.50;;;76.80;2227.20;;;;;;5014637;28;20495;-76
2022/02/28 01:31:00;;;;;;;26.42;16.25;;;76.80;2227.20;;;;;;5013650;28;20026;-76
2022/02/28 01:33:26;;;;;;;20.30;14.38;;;76.80;2227.20;;;;;;5014558;28;20036;-77
2022/02/28 01:35:51;;;;;;;27.45;16.58;;;76.80;2227.20;;;;;;5013561;28;20111;-76
2022/02/28 01:38:17;;;;;;;25.80;16.05;;;52.10;2227.20;;;;;;5013122;28;20042;-76
2022/02/28 01:40:43;;;;;;;20.20;13.40;;;76.80;2227.20;;;;;;5013386;28;20105;-76
2022/02/28 01:43:09;;;;;;;21.02;14.65;;;76.80;2227.20;;;;;;5013516;28;20113;-76
2022/02/28 01:45:35;;;;;;;20.80;14.55;;;76.90;2227.20;;;;;;5014816;28;20449;-76
2022/02/28 01:48:01;;;;;;;23.58;15.10;;;76.90;2227.20;;;;;;5014452;28;20061;-75
2022/02/28 01:50:27;;;;;;;18.48;12.48;;;76.90;2227.20;;;;;;5013236;28;20026;-76
2022/02/28 01:52:54;;;;;;;17.55;11.80;;;76.90;2227.20;;;;;;5014808;28;20030;-75
2022/02/28 01:55:22;;;;;;;19.90;12.90;;;76.80;2227.20;;;;;;5014581;28;20488;-76
2022/02/28 01:57:49;;;;;;;21.90;13.68;;;76.80;2227.20;;;;;;5013800;28;20084;-75
2022/02/28 02:00:18;;;;;;;26.45;16.30;;;76.80;2227.20;;;;;;5014395;28;20030;-75
2022/02/28 02:02:44;;;;;;;43.20;24.08;;;77.00;2227.20;;;;;;5012973;28;20129;-76
2022/02/28 02:05:10;;;;;;;40.80;26.55;;;;;;;;;;5014178;28;20049;-75
2022/02/28 02:07:37;;;;;;;39.20;25.05;;;;;;;;;;5014530;28;20377;-76
2022/02/28 02:10:08;;;;;;;28.98;19.63;;;;;;;;;;5014281;28;20097;-75
2022/02/28 02:12:34;;;;;;;32.25;20.25;;;;;;;;;;5014160;28;20033;-75
2022/02/28 02:15:01;;;;;;;31.05;18.00;;;;;;;;;;5014101;28;20029;-76
2022/02/28 02:17:27;;;;;;;25.50;14.85;;;;;;;;;;5014093;28;20160;-76
2022/02/28 02:19:54;;;;;;;23.85;13.93;;;;;;;;;;5013973;28;20359;-77
2022/02/28 02:22:21;;;;;;;19.65;12.20;;;;;;;;;;5014327;28;20026;-76
2022/02/28 02:24:50;;;;;;;23.20;15.20;;;;;;;;;;5013262;28;20033;-76
2022/02/28 02:27:16;;;;;;;17.77;11.55;;;;;;;;;;5013490;28;20145;-76
2022/02/28 02:29:42;;;;;;;20.90;13.07;;;;;;;;;;5013513;28;20092;-76
2022/02/28 02:32:10;;;;;;;19.73;12.23;;;;;;;;;;5013844;28;20547;-76
2022/02/28 02:34:36;;;;;;;19.73;12.32;;;;;;;;;;5013550;28;20389;-76
2022/02/28 02:37:02;;;;;;;16.77;11.50;;;;;;;;;;5012375;28;20062;-76
2022/02/28 02:39:28;;;;;;;16.50;11.45;;;;;;;;;;5012327;28;20022;-76
2022/02/28 02:41:54;;;;;;;16.98;10.63;;;;;;;;;;5013359;28;20025;-76
2022/02/28 02:44:20;;;;;;;20.20;12.40;;;;;;;;;;5013367;28;20025;-75
2022/02/28 02:46:52;;;;;;;20.30;13.50;;;;;;;;;;5013523;28;20080;-76
2022/02/28 02:49:18;;;;;;;19.30;12.40;;;;;;;;;;5013544;28;20113;-76
2022/02/28 02:51:44;;;;;;;17.25;11.13;;;;;;;;;;5013651;28;20068;-78
2022/02/28 02:54:10;;;;;;;18.50;11.50;;;;;;;;;;5011836;28;20069;-76
2022/02/28 02:56:37;;;;;;;20.20;11.98;;;;;;;;;;5011954;28;20034;-76
2022/02/28 02:59:04;;;;;;;28.95;12.80;;;;;;;;;;5013240;28;20080;-76
2022/02/28 03:01:30;;;;;;;18.67;13.10;;;;;;;;;;5012065;28;20076;-76
2022/02/28 03:03:56;;;;;;;21.35;13.02;;;;;;;;;;5011961;28;20588;-75
2022/02/28 03:06:22;;;;;;;22.35;14.73;;;;;;;;;;5011716;28;20071;-76
2022/02/28 03:08:48;;;;;;;19.17;14.48;;;;;;;;;;5011824;28;20029;-76
2022/02/28 03:11:15;;;;;;;22.35;12.45;;;;;;;;;;5013094;28;20052;-76
2022/02/28 03:13:41;;;;;;;21.10;14.20;;;;;;;;;;5013331;28;20022;-76
2022/02/28 03:16:07;;;;;;;17.13;12.30;;;;;;;;;;5011723;28;20021;-76
2022/02/28 03:18:33;;;;;;;21.00;11.88;;;;;;;;;;5012593;28;20509;-76
2022/02/28 03:20:59;;;;;;;21.60;12.15;;;;;;;;;;5011578;28;20393;-76
2022/02/28 03:23:25;;;;;;;20.40;11.57;;;;;;;;;;5011235;28;20045;-76
2022/02/28 03:25:53;;;;;;;16.42;12.05;;;;;;;;;;5011544;28;20496;-76
2022/02/28 03:28:19;;;;;;;23.25;14.50;;;;;;;;;;5011617;28;20053;-76
2022/02/28 03:30:46;;;;;;;21.60;12.40;;;;;;;;;;5011212;28;20033;-76
2022/02/28 03:33:12;;;;;;;22.38;13.95;;;;;;;;;;5012994;28;20030;-76
2022/02/28 03:35:38;;;;;;;28.60;17.75;;;;;;;;;;5012687;28;20037;-76
2022/02/28 03:38:04;;;;;;;24.13;16.17;;;;;;;;;;5012279;28;20045;-78
2022/02/28 03:40:31;;;;;;;28.00;17.30;;;;;;;;;;5012152;28;20022;-76
2022/02/28 03:43:05;;;;;;;23.25;14.95;;;;;;;;;;5011249;28;20120;-75
2022/02/28 03:45:31;;;;;;;25.45;17.75;;;;;;;;;;5012853;28;20028;-75
2022/02/28 03:47:57;;;;;;;20.75;15.70;;;;;;;;;;5012526;28;20022;-76
2022/02/28 03:50:24;;;;;;;24.42;15.52;;;;;;;;;;5012122;28;20030;-76
2022/02/28 03:52:51;;;;;;;24.33;15.52;;;;;;;;;;5012431;28;20026;-76
2022/02/28 03:55:17;;;;;;;22.30;15.07;;;;;;;;;;5012434;28;20022;-76
2022/02/28 03:57:43;;;;;;;21.50;17.05;;;;;;;;;;5012396;28;20069;-76
2022/02/28 04:00:09;;;;;;;24.48;15.63;;;;;;;;;;5012577;28;20084;-76
2022/02/28 04:02:35;;;;;;;25.27;17.33;;;;;;;;;;5011125;28;20018;-75
2022/02/28 04:05:02;;;;;;;24.85;16.77;;;;;;;;;;5010728;28;20022;-76
2022/02/28 04:07:29;;;;;;;28.60;18.98;;;;;;;;;;5010625;28;20050;-76
2022/02/28 04:09:55;;;;;;;25.40;17.92;;;;;;;;;;5011017;28;20018;-76
2022/02/28 04:12:21;;;;;;;30.92;19.05;;;;;;;;;;5010845;28;20022;-76
2022/02/28 04:14:47;;;;;;;35.40;23.02;;;;;;;;;;5011894;28;20033;-76
2022/02/28 04:17:13;;;;;;;28.33;18.58;;;;;;;;;;5010823;28;20034;-76
2022/02/28 04:19:39;;;;;;;33.33;21.65;;;;;;;;;;5011878;28;20028;-75
2022/02/28 04:22:06;;;;;;;31.60;24.05;;;;;;;;;;5010282;28;20029;-75
2022/02/28 04:24:32;;;;;;;34.83;23.33;;;;;;;;;;5012384;28;20026;-75
2022/02/28 04:26:58;;;;;;;32.40;21.38;;;;;;;;;;5011770;28;20030;-75
2022/02/28 04:29:25;;;;;;;25.58;19.38;;;;;;;;;;5010717;28;20081;-78
2022/02/28 04:31:51;;;;;;;28.83;21.73;;;;;;;;;;5011720;28;20018;-75
2022/02/28 04:34:17;;;;;;;29.20;20.35;;;;;;;;;;5012063;28;20049;-77
2022/02/28 04:36:43;;;;;;;37.85;22.55;;;;;;;;;;5012115;28;20065;-77
2022/02/28 04:39:10;;;;;;;28.30;21.08;;;;;;;;;;5011995;28;20469;-74
2022/02/28 04:41:36;;;;;;;38.50;23.20;;;;;;;;;;5010553;28;20045;-75
2022/02/28 04:44:02;;;;;;;31.75;21.65;;;;;;;;;;5010645;28;20021;-76
2022/02/28 04:46:28;;;;;;;33.63;22.70;;;;;;;;;;5010543;28;20164;-75
2022/02/28 04:48:54;;;;;;;35.03;23.45;;;;;;;;;;5010638;28;20069;-74
2022/02/28 04:51:20;;;;;;;33.70;21.02;;;;;;;;;;5014220;28;20052;-74
2022/02/28 04:53:46;;;;;;;35.22;23.40;;;;;;;;;;5015843;28;20018;-74
2022/02/28 04:56:12;;;;;;;33.30;23.83;;;;;;;;;;5014247;28;20030;-74
2022/02/28 04:58:38;;;;;;;31.38;21.35;;;;;;;;;;5014134;28;20050;-75
2022/02/28 05:01:04;;;;;;;32.58;23.08;;;;;;;;;;5014889;28;20017;-75
2022/02/28 05:03:30;;;;;;;34.45;21.05;;;;;;;;;;5013624;28;20072;-75
2022/02/28 05:05:56;;;;;;;29.42;20.40;;;;;;;;;;5014412;28;20096;-75
2022/02/28 05:08:22;;;;;;;28.60;20.60;;;;;;;;;;5015245;28;20477;-77
2022/02/28 05:10:49;;;;;;;39.42;24.45;;;;;;;;;;5014715;28;20034;-75
2022/02/28 05:13:15;;;;;;;37.60;23.98;;;;;;;;;;5015513;28;20026;-75
2022/02/28 05:15:41;;;;;;;34.13;22.55;;;;;;;;;;5013156;28;20022;-77
2022/02/28 05:18:07;;;;;;;34.80;22.08;;;;;;;;;;5014489;28;20063;-75
2022/02/28 05:20:33;;;;;;;34.97;21.83;;;;;;;;;;5014872;28;20018;-77
2022/02/28 05:22:59;;;;;;;30.50;21.20;;;;;;;;;;5013231;28;20112;-77
2022/02/28 05:25:26;;;;;;;32.55;20.35;;;;;;;;;;5015028;28;20077;-75
2022/02/28 05:27:52;;;;;;;27.38;19.80;;;;;;;;;;5014962;28;20242;-77
2022/02/28 05:30:18;;;;;;;28.80;21.10;;;;;;;;;;5014786;28;20033;-77
2022/02/28 05:32:44;;;;;;;31.77;21.60;;;;;;;;;;5013499;28;20504;-78
2022/02/28 05:35:14;;;;;;;25.55;19.17;;;;;;;;;;5014509;28;20014;-78
2022/02/28 05:37:41;;;;;;;31.95;22.17;;;;;;;;;;5014297;28;20038;-78
2022/02/28 05:40:08;;;;;;;59.25;36.17;;;;;;;;;;5014721;28;20022;-75
2022/02/28 05:42:34;;;;;;;36.40;23.38;;;;;;;;;;5013242;28;20022;-76
2022/02/28 05:45:00;;;;;;;34.97;23.83;;;;;;;;;;5013018;28;20028;-76
2022/02/28 05:47:26;;;;;;;35.22;22.45;;;;;;;;;;5014504;28;20496;-75
2022/02/28 05:49:52;;;;;;;38.80;23.77;;;;;;;;;;5014672;28;20022;-75
2022/02/28 05:52:18;;;;;;;36.85;23.08;;;;;;;;;;5013867;28;20030;-76
2022/02/28 05:54:44;;;;;;;40.17;26.08;;;;;;;;;;5014668;28;20026;-76
2022/02/28 05:57:10;;;;;;;31.65;23.17;;;;;;;;;;5013357;28;20036;-76
2022/02/28 05:59:36;;;;;;;39.70;27.95;;;;;;;;;;5014224;28;20065;-76
2022/02/28 06:02:03;;;;;;;39.22;24.90;;;;;;;;;;5013553;28;20024;-75
2022/02/28 06:04:29;;;;;;;35.33;21.63;;;;;;;;;;5014457;28;20057;-75
2022/02/28 06:06:55;;;;;;;27.60;20.30;;;;;;;;;;5012250;28;20050;-76
2022/02/28 06:09:21;;;;;;;30.85;21.95;;;;;;;;;;5013937;28;20029;-76
2022/02/28 06:11:49;;;;;;;36.65;21.98;;;;;;;;;;5012813;28;20026;-76
2022/02/28 06:14:15;;;;;;;34.72;24.85;;;;;;;;;;5012612;28;20018;-74
2022/02/28 06:16:41;;;;;;;31.92;23.05;;;;;;;;;;5013564;28;20018;-75
2022/02/28 06:19:07;;;;;;;36.53;25.40;;;;;;;;;;5012979;28;20037;-76
2022/02/28 06:21:33;;;;;;;35.38;25.83;;;;;;;;;;5012724;28;20029;-76
2022/02/28 06:23:59;;;;;;;35.47;27.15;;;;;;;;;;5012782;28;20024;-76
2022/02/28 06:26:25;;;;;;;50.60;34.65;;;;;;;;;;5013858;28;20539;-76
2022/02/28 06:28:51;;;;;;;54.63;35.83;;;;;;;;;;5013801;28;20045;-77
2022/02/28 06:31:17;;;;;;;61.63;39.75;;;;;;;;;;5013536;28;20022;-76
2022/02/28 06:33:43;;;;;;;55.47;36.78;;;;;;;;;;5013810;28;20025;-76
2022/02/28 06:36:10;;;;;;;60.42;38.88;;;;;;;;;;5012672;28;20029;-76
2022/02/28 06:38:37;;;;;;;71.05;44.97;;;;;;;;;;5013392;28;20083;-76
2022/02/28 06:41:03;;;;;;;56.13;40.35;;;;;;;;;;5012344;28;20389;-77
2022/02/28 06:43:29;;;;;;;65.97;45.45;;;;;;;;;;5012058;28;20408;-77
2022/02/28 06:45:56;;;;;;;62.10;44.92;;;;;;;;;;5012190;28;20076;-75
2022/02/28 06:48:22;;;;;;;67.07;47.83;;;;;;;;;;5012655;28;20492;-76
2022/02/28 06:50:48;;;;;;;69.70;48.22;;;;;;;;;;5012043;28;20058;-76
2022/02/28 06:53:23;;;;;;;115.72;71.15;;;;;;;;;;5011918;28;20477;-76
2022/02/28 06:55:52;;;;;;;89.40;60.22;;;;;;;;;;5013060;28;20033;-76
2022/02/28 06:58:21;;;;;;;56.72;40.17;;;;;;;;;;5012789;28;20033;-76
2022/02/28 07:00:48;;;;;;;52.25;38.28;;;;;;;;;;5011782;28;20362;-76
2022/02/28 07:03:15;;;;;;;56.30;37.90;;;;;;;;;;5011860;28;20033;-76
2022/02/28 07:05:41;;;;;;;52.58;35.72;;;;;;;;;;5013008;28;20050;-76
2022/02/28 07:08:08;;;;;;;78.88;52.45;;;;;;;;;;5011207;28;20021;-75
2022/02/28 07:10:34;;;;;;;60.95;41.45;;;;;;;;;;5011601;28;20116;-76
2022/02/28 07:13:01;;;;;;;55.85;38.58;;;;;;;;;;5012499;28;20057;-76
2022/02/28 07:15:27;;;;;;;43.35;32.90;;;;;;;;;;5011167;28;20014;-75
2022/02/28 07:17:54;;;;;;;40.53;27.88;;;;;;;;;;5012784;28;20124;-76
2022/02/28 07:20:20;;;;;;;48.22;34.88;;;;;;;;;;5012604;28;20022;-76
2022/02/28 07:22:47;;;;;;;39.35;29.73;;;;;;;;;;5011408;28;20032;-76
2022/02/28 07:25:13;;;;;;;46.60;34.38;;;;;;;;;;5012767;28;20128;-76
2022/02/28 07:27:39;;;;;;;54.00;35.25;;;;;;;;;;5012276;28;20156;-76
2022/02/28 07:30:05;;;;;;;58.25;37.00;;;;;;;;;;5012674;28;20029;-76
2022/02/28 07:32:31;;;;;;;50.25;35.47;;;;;;;;;;5011270;28;20022;-76
2022/02/28 07:34:57;;;;;;;51.35;35.10;;;;;;;;;;5012516;28;20029;-75
2022/02/28 07:37:23;;;;;;;58.70;40.67;;;;;;;;;;5012646;28;20033;-76
2022/02/28 07:39:49;;;;;;;54.90;36.97;;;;;;;;;;5011037;28;20021;-76
2022/02/28 07:42:15;;;;;;;61.00;38.08;;;;;;;;;;5012340;28;20098;-76
2022/02/28 07:44:41;;;;;;;63.95;43.53;;;;;;;;;;5011932;28;20089;-75
2022/02/28 07:47:07;;;;;;;72.90;47.60;;;;;;;;;;5011063;28;20033;-76
2022/02/28 07:49:35;;;;;;;75.63;49.85;;;;;;;;;;5012176;28;20021;-76
2022/02/28 07:52:02;;;;;;;61.42;39.72;;;;;;;;;;5011001;28;20022;-76
2022/02/28 07:54:28;;;;;;;52.30;36.15;;;;;;;;;;5012114;28;20058;-75
2022/02/28 07:56:54;;;;;;;65.78;45.72;;;;;;;;;;5012239;28;20037;-75
2022/02/28 07:59:20;;;;;;;76.45;46.67;;;;;;;;;;5010928;28;20026;-74
2022/02/28 08:01:46;;;;;;;56.50;40.63;;;;;;;;;;5011842;28;20029;-75
2022/02/28 08:04:12;;;;;;;34.30;24.40;;;;;;;;;;5012159;28;20488;-76
2022/02/28 08:06:38;;;;;;;44.50;29.65;;;;;;;;;;5011898;28;20046;-75
2022/02/28 08:09:04;;;;;;;123.15;81.28;;;;;;;;;;5012219;28;20037;-76
2022/02/28 08:11:30;;;;;;;60.28;40.05;;;;;;;;;;5011918;28;20101;-77
2022/02/28 08:13:56;;;;;;;95.47;64.00;;;;;;;;;;5010823;28;20029;-77
2022/02/28 08:16:23;;;;;;;82.97;55.75;;;;;;;;;;5011702;28;20104;-77
2022/02/28 08:18:49;;;;;;;60.65;38.53;;;;;;;;;;5011984;28;20034;-76
2022/02/28 08:21:15;;;;;;;71.40;47.88;;;;;;;;;;5010726;28;20022;-77
2022/02/28 08:23:41;;;;;;;81.60;51.40;;;;;;;;;;5011850;28;20018;-75
2022/02/28 08:26:08;;;;;;;94.68;63.38;;;;;;;;;;5013613;28;20030;-77
2022/02/28 08:28:34;;;;;;;86.97;58.80;;;;;;;;;;5014819;28;20026;-77
2022/02/28 08:31:00;;;;;;;157.20;97.07;;;;;;;;;;5014569;28;20500;-76
2022/02/28 08:33:26;;;;;;;113.22;69.35;;;;;;;;;;5015670;28;20547;-78
2022/02/28 08:35:52;;;;;;;85.10;59.10;;;;;;;;;;5016190;28;20076;-76
2022/02/28 08:38:18;;;;;;;98.60;64.75;;;;;;;;;;5015566;28;20042;-76
2022/02/28 08:40:45;;;;;;;98.05;63.42;;;;;;;;;;5015661;28;20473;-76
2022/02/28 08:43:11;;;;;;;82.82;54.92;;;;;;;;;;5014492;28;20028;-75
2022/02/28 08:45:37;;;;;;;74.80;53.67;;;;;;;;;;5014438;28;20026;-76
2022/02/28 08:48:03;;;;;;;102.45;68.70;;;;;;;;;;5015358;28;20026;-75
2022/02/28 08:50:29;;;;;;;124.18;78.90;;;;;;;;;;5014162;28;20112;-76
2022/02/28 08:52:55;;;;;;;98.80;66.07;;;;;;;;;;5015160;28;20071;-75
2022/02/28 08:55:21;;;;;;;66.63;47.00;;;;;;;;;;5015422;28;20054;-75
2022/02/28 08:57:47;;;;;;;62.65;43.45;;;;;;;;;;5015480;28;20038;-75
2022/02/28 09:00:14;;;;;;;61.63;40.42;;;;;;;;;;5014055;28;20045;-75
2022/02/28 09:02:41;;;;;;;76.35;48.40;;;;;;;;;;5015213;28;20485;-75
2022/02/28 09:05:07;;;;;;;57.03;37.55;;;;;;;;;;5014946;28;20018;-76
2022/02/28 09:07:33;;;;;;;64.32;45.53;;;;;;;;;;5014881;28;20022;-75
2022/02/28 09:10:00;;;;;;;49.85;38.33;;;;;;;;;;5015224;28;20465;-76
2022/02/28 09:12:26;;;;;;;56.83;39.75;;;;;;;;;;5014695;28;20025;-76
2022/02/28 09:14:52;;;;;;;60.20;41.30;;;;;;;;;;5014906;28;20105;-74
2022/02/28 09:17:18;;;;;;;46.03;33.78;;;;;;;;;;5014716;28;20045;-75
2022/02/28 09:19:44;;;;;;;83.05;54.42;;;;;;;;;;5015088;28;20018;-75
2022/02/28 09:22:10;;;;;;;57.65;41.80;;;;;;;;;;5013722;28;20088;-76
2022/02/28 09:24:37;;;;;;;57.45;38.72;;;;;;;;;;5014843;28;20029;-75
2022/02/28 09:27:04;;;;;;;38.92;27.85;;;;;;;;;;5013510;28;20485;-76
2022/02/28 09:29:30;;;;;;;42.05;28.48;;;;;;;;;;5014962;28;20026;-76
2022/02/28 09:31:59;;;;;;;32.00;23.17;;;;;;;;;;5014700;28;20417;-76
2022/02/28 09:34:25;;;;;;;53.35;33.55;;;;;;;;;;5014470;28;20396;-76
2022/02/28 09:36:52;;;;;;;44.35;32.83;;;;;;;;;;5013610;28;20026;-76
2022/02/28 09:39:18;;;;;;;38.25;27.05;;;;;;;;;;5014770;28;20201;-75
2022/02/28 09:41:45;;;;;;;33.58;22.17;;;;;;;;;;5014584;28;20057;-76
2022/02/28 09:44:14;;;;;;;30.70;23.25;;;;;;;;;;5013383;28;20022;-76
2022/02/28 09:46:41;;;;;;;30.20;20.77;;;;;;;;;;5014390;28;20018;-75
2022/02/28 09:49:08;;;;;;;42.40;29.63;;;;;;;;;;5013266;28;20481;-75
2022/02/28 09:51:34;;;;;;;42.85;28.63;;;;;;;;;;5014334;28;20172;-76
2022/02/28 09:54:00;;;;;;;40.72;29.35;;;;;;;;;;5014636;28;20041;-75
2022/02/28 09:56:26;;;;;;;44.60;33.30;;;;;;;;;;5014010;28;20053;-76
2022/02/28 09:58:52;;;;;;;33.30;22.58;;;;;;;;;;5012999;28;20038;-76
2022/02/28 10:01:19;;;;;;;25.63;15.75;;;;;;;;;;5014276;28;20469;-75
2022/02/28 10:03:45;;;;;;;22.05;15.60;;;;;;;;;;5014317;28;20037;-75
2022/02/28 10:06:11;;;;;;;17.30;10.65;;;;;;;;;;5014180;28;20108;-76
2022/02/28 10:08:42;;;;;;;33.97;13.95;;;;;;;;;;5013835;28;20018;-75
2022/02/28 10:11:29;;;;;;;20.15;10.68;;;;;;;;;;5013844;28;20026;-75
2022/02/28 10:13:56;;;;;;;33.63;21.27;;;;;;;;;;5013923;28;20105;-76
2022/02/28 10:16:38;;;;;;;26.45;16.58;;;;;;;;;;5013953;28;20065;-76
2022/02/28 10:19:07;;;;;;;31.80;20.45;;;;;;;;;;5014010;28;20519;-76
2022/02/28 10:21:37;;;;;;;17.33;11.05;;;;;;;;;;5013929;28;20103;-75
2022/02/28 10:24:04;;;;;;;21.02;13.77;;;;;;;;;;5012597;28;20025;-75
2022/02/28 10:26:38;;;;;;;15.05;11.68;;;;;;;;;;5012413;28;20076;-76
2022/02/28 10:29:05;;;;;;;17.80;13.77;;;;;;;;;;5013485;28;20033;-75
2022/02/28 10:31:34;;;;;;;16.13;11.82;;;;;;;;;;5012060;28;20018;-74
2022/02/28 10:34:10;;;;;;;18.27;14.38;;;;;;;;;;5013158;28;20018;-75
2022/02/28 10:36:36;;;;;;;41.33;27.15;;;;;;;;;;5012281;28;20026;-75
2022/02/28 10:39:07;;;;;;;18.38;12.13;;;;;;;;;;5012145;28;20477;-75
2022/02/28 10:41:40;;;;;;;18.73;14.50;;;;;;;;;;5012086;28;20029;-75
2022/02/28 10:44:09;;;;;;;20.40;11.82;;;;;;;;;;5013581;28;20428;-75
2022/02/28 10:46:39;;;;;;;22.42;13.98;;;;;;;;;;5013321;28;20473;-75
2022/02/28 10:49:07;;;;;;;18.10;13.02;;;;;;;;;;5012104;28;20366;-76
2022/02/28 10:51:43;;;;;;;22.45;14.95;;;;;;;;;;5013215;28;20018;-75
2022/02/28 10:54:14;;;;;;;20.23;12.43;;;;;;;;;;5013295;28;20018;-74
2022/02/28 10:56:57;;;;;;;20.95;13.38;;;;;;;;;;5012731;28;20026;-75
2022/02/28 10:59:24;;;;;;;18.38;12.13;;;;;;;;;;5013121;28;20022;-75
2022/02/28 11:01:51;;;;;;;23.20;14.80;;;;;;;;;;5012734;28;20022;-75
2022/02/28 11:04:28;;;;;;;17.30;12.93;;;;;;;;;;5011703;28;20105;-76
2022/02/28 11:06:54;;;;;;;19.83;13.98;;;;;;;;;;5013146;28;20462;-76
2022/02/28 11:09:29;;;;;;;22.20;13.68;;;;;;;;;;5011433;28;20026;-76
2022/02/28 11:12:00;;;;;;;19.60;14.38;;;;;;;;;;5011939;28;20488;-76
2022/02/28 11:14:26;;;;;;;22.40;16.63;;;;;;;;;;5012744;28;20021;-76
2022/02/28 11:16:53;;;;;;;23.33;16.40;;;;;;;;;;5025361;28;20026;-76
2022/02/28 11:19:19;;;;;;;16.05;10.05;;;;;;;;;;5012447;28;20022;-76
2022/02/28 11:21:45;;;;;;;17.33;12.57;;;;;;;;;;5011441;28;20169;-76
2022/02/28 11:24:11;;;;;;;18.50;12.98;;;;;;;;;;5012687;28;20477;-76
2022/02/28 11:26:37;;;;;;;19.25;13.85;;;;;;;;;;5010534;28;20025;-76
2022/02/28 11:29:03;;;;;;;17.42;12.98;;;;;;;;;;5011320;28;20021;-76
2022/02/28 11:31:29;;;;;;;18.08;10.73;;;;;;;;;;5010223;28;20462;-77
2022/02/28 11:34:09;;;;;;;18.98;13.55;;;;;;;;;;5011176;28;20064;-76
2022/02/28 11:36:58;;;;;;;23.15;14.15;;;;;;;;;;5009494;28;20018;-77
2022/02/28 11:39:40;;;;;;;21.52;15.60;;;;;;;;;;5005556;28;20563;-77
2022/02/28 11:42:08;;;;;;;19.30;12.25;;;;;;;;;;5012064;28;20032;-75
2022/02/28 11:44:36;;;;;;;19.70;13.18;;;;;;;;;;5010932;28;20053;-77
2022/02/28 11:47:03;;;;;;;26.15;20.15;;;;;;;;;;4992696;28;20035;-76
2022/02/28 11:49:39;;;;;;;22.30;16.77;;;;;;;;;;4995795;28;20523;-77
2022/02/28 11:52:24;;;;;;;21.30;17.25;;;;;;;;;;5012272;28;20033;-77
2022/02/28 11:54:58;;;;;;;21.92;16.40;;;;;;;;;;5012443;28;20057;-76
2022/02/28 11:57:50;;;;;;;30.25;19.25;;;;;;;;;;5011845;28;20037;-76
2022/02/28 12:00:20;;;;;;;34.50;20.80;;;;;;;;;;5010176;28;20113;-76
2022/02/28 12:02:47;;;;;;;25.55;16.13;;;;;;;;;;5011760;28;20420;-77
2022/02/28 12:05:32;;;;;;;22.80;15.13;;;;;;;;;;5011816;28;20049;-76
2022/02/28 12:07:59;;;;;;;35.88;19.90;;;;;;;;;;5008215;28;20127;-76
2022/02/28 12:10:28;;;;;;;22.20;13.70;;;;;;;;;;5011764;28;20014;-77
2022/02/28 12:12:58;;;;;;;21.13;14.60;;;;;;;;;;5009502;28;20026;-77
2022/02/28 12:15:24;;;;;;;27.48;15.38;;;;;;;;;;5011292;28;20052;-77
2022/02/28 12:17:51;;;;;;;30.17;21.00;;;;;;;;;;5011942;28;20033;-80
2022/02/28 12:20:37;;;;;;;28.40;14.90;;;;;;;;;;5013293;28;20026;-80
2022/02/28 12:23:05;;;;;;;15.95;11.98;;;;;;;;;;5011680;28;20060;-76
2022/02/28 12:25:34;;;;;;;16.88;11.48;;;;;;;;;;5011960;28;20018;-78
2022/02/28 12:28:22;;;;;;;19.63;12.15;;;;;;;;;;5011153;28;20049;-75
2022/02/28 12:30:54;;;;;;;24.58;14.35;;;;;;;;;;5011283;28;20026;-87
2022/02/28 12:33:23;;;;;;;22.70;13.07;;;;;;;;;;5011704;28;20045;-77
2022/02/28 12:35:50;;;;;;;15.75;11.32;;;103.10;2227.20;;;;;;5010321;28;20030;-76
2022/02/28 12:38:16;;;;;;;19.13;10.68;;;103.10;2227.20;;;;;;5011435;28;20121;-76
2022/02/28 12:40:56;;;;;;;25.13;16.63;;;;;;;;;;5010066;28;20068;-75
2022/02/28 12:43:23;;;;;;;27.30;18.88;;;;;;;;;;5009588;28;20032;-76
2022/02/28 12:45:51;;;;;;;34.42;24.27;;;;;;;;;;5008183;28;20104;-76
2022/02/28 12:48:18;;;;;;;21.63;14.65;;;;;;;;;;5011055;28;20036;-76
2022/02/28 12:50:46;;;;;;;28.02;16.90;;;;;;;;;;5009422;28;20133;-75
2022/02/28 12:53:14;;;;;;;24.45;16.38;;;;;;;;;;5010910;28;20010;-76
2022/02/28 12:55:48;;;;;;;26.20;17.48;;;;;;;;;;5010728;28;20018;-77
2022/02/28 12:58:20;;;;;;;24.00;16.75;;;;;;;;;;5022343;28;20030;-76
2022/02/28 13:00:46;;;;;;;24.27;18.80;;;;;;;;;;5011534;28;20030;-76
2022/02/28 13:03:12;;;;;;;28.75;17.85;;;;;;;;;;5010240;28;20383;-75
2022/02/28 13:05:38;;;;;;;23.00;17.35;;;;;;;;;;5009719;28;20127;-76
2022/02/28 13:08:04;;;;;;;28.88;17.23;;;;;;;;;;5010128;28;20057;-77
2022/02/28 13:10:30;;;;;;;30.27;18.58;;;;;;;;;;5011043;28;20026;-75
2022/02/28 13:12:56;;;;;;;30.90;21.73;;;;;;;;;;5014553;28;20095;-76
2022/02/28 13:15:22;;;;;;;34.67;23.27;;;;;;;;;;5014539;28;20026;-76
2022/02/28 13:17:48;;;;;;;25.83;19.52;;;;;;;;;;5012911;28;20195;-76
2022/02/28 13:20:15;;;;;;;30.75;20.65;;;;;;;;;;5013308;28;20032;-76
2022/02/28 13:22:43;;;;;;;50.83;32.80;;;;;;;;;;5013824;28;20481;-76
2022/02/28 13:25:14;;;;;;;33.00;23.10;;;;;;;;;;5013666;28;20473;-76
2022/02/28 13:27:42;;;;;;;29.80;20.05;;;;;;;;;;5012788;28;20053;-76
2022/02/28 13:30:08;;;;;;;27.00;22.20;;;;;;;;;;5011767;28;20112;-79
2022/02/28 13:32:36;;;;;;;33.95;24.90;;;;;;;;;;5013301;28;20385;-78
2022/02/28 13:35:02;;;;;;;30.02;22.02;;;;;;;;;;5013857;28;20434;-76
2022/02/28 13:37:30;;;;;;;29.10;20.73;;;;;;;;;;5014476;28;20038;-77
2022/02/28 13:39:57;;;;;;;26.20;19.23;;;;;;;;;;5012368;28;20018;-76
2022/02/28 13:42:26;;;;;;;33.88;24.23;;;;;;;;;;5012737;28;20036;-76
2022/02/28 13:45:03;;;;;;;65.43;45.40;;;;;;;;;;5014159;28;20109;-76
2022/02/28 13:47:34;;;;;;;43.00;29.13;;;;;;;;;;5014033;28;20026;-76
2022/02/28 13:50:02;;;;;;;37.22;25.85;;;;;;;;;;5013829;28;20014;-77
2022/02/28 13:52:29;;;;;;;40.70;24.63;;;;;;;;;;5013028;28;20029;-78
2022/02/28 13:55:01;;;;;;;35.50;24.90;;;;;;;;;;5011096;28;20048;-77